createdAt,value
2019-01-25T00:00:02.755Z,165.73
2019-01-25T00:02:31.510Z,173.00
2019-01-25T00:05:00.331Z,168.53
2019-01-25T00:07:28.659Z,169.83
2019-01-25T00:09:58.799Z,172.97
2019-01-25T00:12:27.383Z,159.47
2019-01-25T00:14:55.788Z,164.37
2019-01-25T00:17:24.104Z,167.00
2019-01-25T00:19:52.833Z,158.17
2019-01-25T00:22:21.617Z,153.57
2019-01-25T00:24:49.950Z,155.17
2019-01-25T00:27:18.262Z,148.83
2019-01-25T00:29:46.955Z,154.83
2019-01-25T00:32:15.276Z,147.13
2019-01-25T00:34:43.601Z,150.30
2019-01-25T00:37:12.194Z,150.07
2019-01-25T00:39:40.513Z,150.23
2019-01-25T00:42:08.859Z,148.73
2019-01-25T00:44:37.167Z,150.83
2019-01-25T00:47:05.497Z,147.97
2019-01-25T00:49:34.503Z,139.47
2019-01-25T00:52:02.835Z,137.43
2019-01-25T00:54:31.139Z,137.77
2019-01-25T00:56:59.487Z,139.40
2019-01-25T00:59:28.116Z,139.53
2019-01-25T01:01:56.799Z,136.67
2019-01-25T01:04:25.390Z,138.97
2019-01-25T01:06:54.075Z,136.77
2019-01-25T01:09:22.758Z,130.03
2019-01-25T01:11:51.347Z,129.33
2019-01-25T01:14:19.786Z,134.27
2019-01-25T01:16:48.511Z,123.57
2019-01-25T01:19:17.196Z,132.93
2019-01-25T01:21:45.507Z,121.67
2019-01-25T01:24:14.175Z,146.40
2019-01-25T01:26:42.567Z,181.60
2019-01-25T01:29:11.163Z,205.17
2019-01-25T01:31:39.542Z,178.30
2019-01-25T01:34:07.876Z,174.80
2019-01-25T01:36:36.262Z,175.13
2019-01-25T01:39:06.331Z,176.07
2019-01-25T01:41:34.643Z,168.60
2019-01-25T01:44:02.976Z,175.30
2019-01-25T01:46:31.612Z,177.50
2019-01-25T01:49:00.317Z,173.57
2019-01-25T01:51:28.719Z,163.83
2019-01-25T01:53:57.120Z,167.67
2019-01-25T01:56:25.852Z,162.53
2019-01-25T01:58:54.436Z,172.40
2019-01-25T02:01:23.023Z,160.97
2019-01-25T02:03:51.484Z,158.47
2019-01-25T02:06:20.054Z,162.03
2019-01-25T02:08:48.391Z,160.27
2019-01-25T02:11:16.711Z,157.80
2019-01-25T02:13:45.117Z,168.57
2019-01-25T02:16:13.428Z,155.50
2019-01-25T02:18:41.757Z,150.10
2019-01-25T02:21:10.083Z,179.17
2019-01-25T02:23:38.511Z,217.23
2019-01-25T02:26:07.124Z,205.97
2019-01-25T02:28:35.795Z,181.63
2019-01-25T02:31:04.135Z,183.13
2019-01-25T02:33:32.473Z,176.97
2019-01-25T02:36:01.148Z,164.97
2019-01-25T02:38:29.829Z,174.33
2019-01-25T02:40:58.167Z,193.07
2019-01-25T02:43:26.567Z,204.33
2019-01-25T02:45:55.167Z,194.13
2019-01-25T02:48:23.480Z,184.53
2019-01-25T02:50:51.849Z,205.80
2019-01-25T02:53:20.199Z,165.50
2019-01-25T02:55:48.889Z,166.43
2019-01-25T02:58:17.217Z,170.63
2019-01-25T03:00:45.616Z,193.03
2019-01-25T03:03:13.935Z,207.30
2019-01-25T03:05:42.617Z,191.90
2019-01-25T03:08:10.998Z,192.20
2019-01-25T03:10:46.821Z,182.17
2019-01-25T03:13:10.154Z,183.70
2019-01-25T03:15:38.480Z,179.93
2019-01-25T03:18:07.174Z,176.50
2019-01-25T03:20:35.481Z,179.23
2019-01-25T03:23:04.133Z,166.93
2019-01-25T03:25:32.815Z,154.07
2019-01-25T03:28:01.503Z,155.93
2019-01-25T03:30:30.117Z,159.87
2019-01-25T03:32:58.499Z,156.10
2019-01-25T03:35:27.252Z,159.10
2019-01-25T03:37:55.590Z,148.63
2019-01-25T03:40:25.748Z,154.40
2019-01-25T03:42:54.055Z,157.77
2019-01-25T03:45:22.573Z,161.87
2019-01-25T03:47:50.971Z,147.67
2019-01-25T03:50:25.616Z,142.33
2019-01-25T03:52:54.205Z,140.87
2019-01-25T03:55:22.987Z,146.67
2019-01-25T03:57:51.607Z,156.40
2019-01-25T04:00:28.271Z,157.63
2019-01-25T04:02:57.038Z,150.07
2019-01-25T04:05:25.720Z,148.83
2019-01-25T04:07:54.044Z,150.97
2019-01-25T04:10:24.491Z,151.17
2019-01-25T04:12:53.132Z,146.53
2019-01-25T04:15:24.538Z,134.30
2019-01-25T04:17:53.254Z,141.10
2019-01-25T04:20:22.867Z,137.83
2019-01-25T04:23:10.625Z,146.30
2019-01-25T04:25:58.363Z,142.87
2019-01-25T04:28:46.467Z,131.80
2019-01-25T04:34:41.027Z,127.83
2019-01-25T04:37:29.124Z,138.60
2019-01-25T04:40:10.276Z,141.83
2019-01-25T04:42:50.853Z,126.17
2019-01-25T04:45:31.897Z,129.30
2019-01-25T04:48:13.004Z,130.97
2019-01-25T04:50:54.004Z,125.40
2019-01-25T04:53:34.972Z,129.00
2019-01-25T04:56:15.848Z,121.70
2019-01-25T04:58:56.252Z,127.07
2019-01-25T05:01:37.232Z,123.47
2019-01-25T05:04:18.495Z,118.63
2019-01-25T05:06:59.107Z,123.23
2019-01-25T05:09:40.165Z,113.70
2019-01-25T05:12:21.375Z,113.83
2019-01-25T05:15:01.895Z,113.97
2019-01-25T05:17:42.855Z,121.43
2019-01-25T05:20:24.307Z,111.37
2019-01-25T05:23:05.065Z,112.53
2019-01-25T05:25:45.918Z,113.93
2019-01-25T05:28:27.126Z,111.77
2019-01-25T05:31:07.916Z,113.10
2019-01-25T05:33:48.922Z,110.43
2019-01-25T05:36:30.160Z,107.83
2019-01-25T05:39:14.390Z,106.23
2019-01-25T05:41:55.403Z,107.43
2019-01-25T05:44:35.650Z,113.53
2019-01-25T05:47:16.190Z,107.37
2019-01-25T05:49:57.472Z,111.20
2019-01-25T05:52:38.081Z,103.03
2019-01-25T05:55:18.975Z,104.20
2019-01-25T05:57:59.953Z,112.37
2019-01-25T06:00:42.288Z,97.80
2019-01-25T06:03:21.230Z,97.80
2019-01-25T06:06:08.967Z,100.20
2019-01-25T06:08:56.975Z,97.40
2019-01-25T06:11:45.019Z,97.17
2019-01-25T06:14:33.051Z,94.50
2019-01-25T06:17:21.091Z,99.50
2019-01-25T06:20:09.466Z,93.47
2019-01-25T06:22:57.194Z,98.57
2019-01-25T06:28:40.010Z,93.00
2019-01-25T06:31:27.750Z,95.77
2019-01-25T06:34:15.478Z,92.53
2019-01-25T06:37:03.202Z,87.73
2019-01-25T06:39:50.911Z,87.40
2019-01-25T06:42:38.898Z,89.67
2019-01-25T06:45:26.955Z,88.13
2019-01-25T06:48:14.716Z,89.10
2019-01-25T06:51:02.426Z,87.63
2019-01-25T06:53:50.165Z,86.70
2019-01-25T06:56:37.899Z,86.63
2019-01-25T06:59:25.994Z,83.90
2019-01-25T07:02:07.174Z,83.40
2019-01-25T07:04:47.992Z,86.73
2019-01-25T07:07:30.339Z,85.23
2019-01-25T07:10:11.250Z,82.07
2019-01-25T07:12:52.076Z,82.47
2019-01-25T07:15:33.079Z,78.57
2019-01-25T07:18:14.037Z,80.87
2019-01-25T07:20:54.941Z,79.17
2019-01-25T07:26:17.982Z,81.30
2019-01-25T07:28:58.635Z,80.80
2019-01-25T07:31:39.357Z,74.87
2019-01-25T07:34:20.091Z,73.77
2019-01-25T07:37:00.972Z,78.13
2019-01-25T07:39:42.285Z,77.70
2019-01-25T07:42:23.859Z,74.13
2019-01-25T07:45:05.272Z,75.23
2019-01-25T07:47:46.188Z,70.40
2019-01-25T07:50:27.125Z,75.30
2019-01-25T07:53:08.100Z,71.10
2019-01-25T07:55:48.717Z,70.10
2019-01-25T07:58:29.235Z,74.13
2019-01-25T08:01:10.273Z,70.23
2019-01-25T08:03:50.996Z,69.43
2019-01-25T08:06:32.118Z,71.10
2019-01-25T08:09:13.120Z,66.53
2019-01-25T08:11:53.848Z,70.37
2019-01-25T08:14:35.051Z,66.70
2019-01-25T08:17:19.546Z,65.47
2019-01-25T08:20:00.838Z,63.30
2019-01-25T08:22:41.979Z,63.80
2019-01-25T08:25:22.899Z,64.70
2019-01-25T08:28:03.460Z,61.63
2019-01-25T08:30:44.510Z,64.80
2019-01-25T08:33:24.997Z,61.40
2019-01-25T08:36:05.462Z,60.00
2019-01-25T08:38:46.862Z,61.80
2019-01-25T08:41:27.930Z,59.27
2019-01-25T08:44:08.794Z,57.80
2019-01-25T08:46:49.938Z,57.43
2019-01-25T08:49:30.489Z,63.10
2019-01-25T08:52:11.459Z,58.87
2019-01-25T08:54:52.497Z,51.40
2019-01-25T08:57:33.434Z,52.30
2019-01-25T09:00:14.473Z,87.80
2019-01-25T09:02:54.974Z,123.90
2019-01-25T09:05:36.139Z,119.17
2019-01-25T09:08:17.095Z,103.30
2019-01-25T09:10:57.625Z,105.50
2019-01-25T09:13:37.829Z,110.57
2019-01-25T09:16:18.085Z,98.30
2019-01-25T09:18:58.740Z,103.60
2019-01-25T09:21:39.556Z,93.80
2019-01-25T09:24:20.075Z,94.37
2019-01-25T09:27:00.597Z,87.27
2019-01-25T09:29:41.578Z,96.30
2019-01-25T09:32:22.634Z,131.50
2019-01-25T09:35:03.947Z,129.83
2019-01-25T09:37:44.776Z,116.50
2019-01-25T09:40:26.398Z,116.93
2019-01-25T09:43:07.259Z,114.60
2019-01-25T09:45:48.142Z,111.03
2019-01-25T09:48:29.437Z,105.60
2019-01-25T09:51:10.703Z,104.47
2019-01-25T09:53:52.455Z,122.93
2019-01-25T09:56:33.051Z,140.70
2019-01-25T10:01:56.419Z,145.80
2019-01-25T10:04:36.606Z,156.27
2019-01-25T10:07:16.847Z,138.47
2019-01-25T10:09:57.982Z,138.33
2019-01-25T10:12:43.266Z,149.13
2019-01-25T10:15:21.990Z,135.97
2019-01-25T10:18:02.707Z,137.13
2019-01-25T10:20:43.816Z,133.10
2019-01-25T10:23:24.507Z,130.07
2019-01-25T10:26:05.345Z,132.63
2019-01-25T10:28:46.479Z,126.27
2019-01-25T10:31:27.014Z,125.40
2019-01-25T10:34:07.759Z,129.73
2019-01-25T10:36:48.674Z,151.50
2019-01-25T10:39:29.811Z,167.50
2019-01-25T10:42:10.786Z,160.83
2019-01-25T10:44:51.535Z,153.60
2019-01-25T10:47:32.483Z,166.30
2019-01-25T10:50:11.247Z,154.17
2019-01-25T10:52:59.214Z,147.07
2019-01-25T10:55:46.971Z,138.93
2019-01-25T10:58:35.027Z,152.43
2019-01-25T11:01:23.170Z,145.47
2019-01-25T11:04:11.647Z,154.40
2019-01-25T11:07:00.353Z,169.27
2019-01-25T11:13:00.753Z,186.13
2019-01-25T11:18:38.159Z,156.87
2019-01-25T11:21:26.157Z,157.07
2019-01-25T11:24:14.214Z,154.53
2019-01-25T11:27:01.946Z,155.63
2019-01-25T11:29:30.602Z,139.40
2019-01-25T11:31:58.944Z,158.70
2019-01-25T11:34:27.315Z,159.10
2019-01-25T11:36:55.610Z,156.27
2019-01-25T11:39:23.909Z,161.13
2019-01-25T11:41:52.280Z,147.33
2019-01-25T11:44:20.578Z,149.30
2019-01-25T11:46:48.991Z,143.50
2019-01-25T11:49:17.634Z,143.83
2019-01-25T11:51:45.939Z,137.27
2019-01-25T11:54:14.322Z,140.13
2019-01-25T11:56:42.970Z,132.13
2019-01-25T11:59:11.289Z,132.20
2019-01-25T12:01:39.939Z,127.90
2019-01-25T12:04:08.490Z,135.10
2019-01-25T12:06:36.790Z,143.93
2019-01-25T12:09:07.731Z,145.30
2019-01-25T12:11:36.027Z,153.90
2019-01-25T12:14:04.807Z,162.47
2019-01-25T12:16:33.391Z,153.87
2019-01-25T12:19:01.972Z,154.93
2019-01-25T12:21:30.277Z,150.43
2019-01-25T12:23:58.603Z,140.37
2019-01-25T12:26:27.214Z,141.90
2019-01-25T12:28:55.530Z,148.67
2019-01-25T12:31:23.818Z,140.67
2019-01-25T12:33:52.112Z,152.53
2019-01-25T12:36:20.507Z,142.33
2019-01-25T12:38:48.809Z,138.53
2019-01-25T12:41:17.378Z,135.83
2019-01-25T12:43:45.966Z,138.77
2019-01-25T12:46:14.584Z,165.80
2019-01-25T12:48:42.914Z,185.07
2019-01-25T12:51:14.727Z,191.63
2019-01-25T12:53:43.013Z,190.70
2019-01-25T12:56:11.317Z,181.33
2019-01-25T12:58:40.028Z,167.90
2019-01-25T13:01:10.250Z,177.83
2019-01-25T13:03:38.574Z,188.57
2019-01-25T13:06:07.215Z,176.97
2019-01-25T13:08:35.591Z,170.90
2019-01-25T13:11:03.975Z,165.33
2019-01-25T13:13:32.299Z,164.83
2019-01-25T13:16:00.594Z,162.87
2019-01-25T13:18:28.966Z,155.33
2019-01-25T13:20:57.583Z,157.07
2019-01-25T13:23:25.877Z,160.90
2019-01-25T13:25:54.549Z,153.00
2019-01-25T13:28:22.839Z,154.33
2019-01-25T13:30:51.512Z,161.40
2019-01-25T13:33:20.407Z,173.20
2019-01-25T13:35:48.983Z,164.77
2019-01-25T13:38:17.670Z,167.93
2019-01-25T13:40:45.991Z,165.20
2019-01-25T13:43:14.290Z,179.53
2019-01-25T13:45:42.587Z,170.23
2019-01-25T13:48:11.186Z,177.13
2019-01-25T13:50:39.721Z,171.70
2019-01-25T13:53:08.026Z,162.67
2019-01-25T13:55:36.330Z,168.97
2019-01-25T13:58:04.905Z,157.37
2019-01-25T14:00:34.651Z,158.90
2019-01-25T14:03:03.315Z,154.30
2019-01-25T14:05:31.988Z,142.13
2019-01-25T14:08:00.570Z,140.53
2019-01-25T14:10:31.697Z,145.67
2019-01-25T14:13:00.005Z,139.93
2019-01-25T14:15:28.370Z,141.90
2019-01-25T14:17:56.959Z,139.40
2019-01-25T14:20:27.964Z,138.50
2019-01-25T14:22:56.583Z,135.97
2019-01-25T14:25:25.165Z,141.70
2019-01-25T14:27:53.478Z,193.63
2019-01-25T14:30:24.205Z,170.80
2019-01-25T14:32:52.513Z,162.60
2019-01-25T14:35:21.142Z,156.13
2019-01-25T14:37:49.448Z,149.37
2019-01-25T14:40:17.747Z,143.93
2019-01-25T14:42:46.375Z,147.37
2019-01-25T14:45:19.535Z,156.27
2019-01-25T14:47:48.250Z,141.47
2019-01-25T14:50:19.034Z,153.53
2019-01-25T14:52:47.334Z,159.93
2019-01-25T14:55:15.631Z,160.57
2019-01-25T14:57:44.234Z,151.50
2019-01-25T15:00:12.631Z,164.97
2019-01-25T15:02:41.191Z,155.20
2019-01-25T15:05:15.907Z,152.73
2019-01-25T15:07:44.607Z,157.60
2019-01-25T15:10:15.248Z,149.00
2019-01-25T15:12:43.827Z,140.37
2019-01-25T15:15:13.795Z,140.90
2019-01-25T15:17:42.422Z,149.37
2019-01-25T15:20:13.839Z,151.07
2019-01-25T15:22:42.129Z,171.60
2019-01-25T15:25:10.434Z,163.30
2019-01-25T15:27:38.742Z,152.77
2019-01-25T15:30:16.294Z,146.50
2019-01-25T15:32:44.718Z,145.77
2019-01-25T15:35:14.720Z,137.57
2019-01-25T15:37:43.071Z,142.60
2019-01-25T15:40:14.037Z,132.67
2019-01-25T15:42:44.137Z,137.53
2019-01-25T15:45:14.790Z,131.13
2019-01-25T15:47:43.126Z,130.53
2019-01-25T15:50:29.055Z,123.40
2019-01-25T15:52:57.714Z,135.20
2019-01-25T15:55:26.336Z,132.50
2019-01-25T15:57:55.094Z,143.60
2019-01-25T16:00:25.713Z,142.90
2019-01-25T16:02:54.317Z,135.77
2019-01-25T16:05:23.922Z,138.70
2019-01-25T16:07:52.504Z,130.73
2019-01-25T16:10:22.200Z,131.83
2019-01-25T16:12:51.149Z,134.10
2019-01-25T16:15:21.858Z,132.63
2019-01-25T16:17:50.169Z,129.40
2019-01-25T16:20:19.307Z,122.17
2019-01-25T16:22:49.055Z,120.93
2019-01-25T16:25:26.940Z,121.07
2019-01-25T16:27:55.819Z,115.80
2019-01-25T16:30:28.938Z,116.03
2019-01-25T16:32:57.498Z,110.53
2019-01-25T16:35:26.071Z,97.67
2019-01-25T16:37:54.648Z,96.23
2019-01-25T16:40:26.102Z,98.20
2019-01-25T16:42:54.386Z,96.03
2019-01-25T16:45:26.042Z,89.57
2019-01-25T16:47:54.338Z,96.40
2019-01-25T16:50:23.905Z,94.27
2019-01-25T16:52:52.812Z,92.87
2019-01-25T16:55:21.198Z,140.00
2019-01-25T16:57:49.779Z,154.13
2019-01-25T17:00:29.818Z,146.47
2019-01-25T17:02:58.123Z,142.07
2019-01-25T17:05:26.470Z,136.60
2019-01-25T17:07:55.064Z,127.30
2019-01-25T17:10:23.609Z,126.60
2019-01-25T17:12:52.230Z,126.83
2019-01-25T17:15:20.541Z,123.77
2019-01-25T17:17:48.832Z,116.60
2019-01-25T17:20:21.447Z,116.30
2019-01-25T17:22:50.389Z,115.90
2019-01-25T17:25:19.042Z,111.67
2019-01-25T17:27:47.578Z,110.87
2019-01-25T17:30:23.549Z,103.47
2019-01-25T17:32:52.977Z,108.10
2019-01-25T17:35:21.274Z,115.77
2019-01-25T17:37:50.157Z,105.97
2019-01-25T17:40:27.527Z,97.33
2019-01-25T17:42:55.818Z,159.07
2019-01-25T17:45:25.234Z,167.47
2019-01-25T17:47:54.112Z,186.97
2019-01-25T17:50:22.708Z,184.20
2019-01-25T17:52:51.006Z,163.20
2019-01-25T17:55:19.658Z,153.63
2019-01-25T17:57:47.947Z,144.97
2019-01-25T18:00:24.005Z,135.73
2019-01-25T18:02:52.618Z,127.10
2019-01-25T18:05:21.208Z,136.27
2019-01-25T18:07:49.653Z,183.10
2019-01-25T18:10:20.154Z,167.10
2019-01-25T18:12:48.755Z,151.80
2019-01-25T18:15:18.369Z,143.73
2019-01-25T18:17:46.704Z,139.70
2019-01-25T18:20:19.989Z,135.27
2019-01-25T18:22:48.499Z,128.93
2019-01-25T18:25:20.426Z,160.73
2019-01-25T18:27:52.355Z,177.20
2019-01-25T18:30:36.196Z,166.67
2019-01-25T18:33:04.478Z,163.00
2019-01-25T18:35:33.138Z,160.53
2019-01-25T18:38:01.438Z,155.00
2019-01-25T18:40:29.999Z,143.17
2019-01-25T18:42:58.306Z,146.50
2019-01-25T18:45:26.618Z,142.90
2019-01-25T18:47:55.260Z,126.90
2019-01-25T18:50:23.571Z,132.20
2019-01-25T18:52:51.886Z,124.70
2019-01-25T18:55:23.062Z,125.07
2019-01-25T18:57:51.734Z,122.10
2019-01-25T19:00:21.472Z,122.80
2019-01-25T19:02:49.836Z,111.00
2019-01-25T19:05:18.155Z,113.37
2019-01-25T19:07:46.532Z,115.63
2019-01-25T19:10:17.980Z,108.73
2019-01-25T19:12:46.606Z,104.10
2019-01-25T19:15:21.291Z,104.13
2019-01-25T19:17:49.582Z,101.33
2019-01-25T19:20:18.194Z,100.77
2019-01-25T19:22:46.778Z,94.33
2019-01-25T19:25:15.089Z,94.57
2019-01-25T19:27:43.480Z,94.70
2019-01-25T19:30:27.379Z,90.27
2019-01-25T19:32:55.663Z,90.40
2019-01-25T19:35:23.942Z,82.53
2019-01-25T19:37:52.453Z,80.87
2019-01-25T19:40:23.678Z,81.30
2019-01-25T19:42:52.244Z,79.40
2019-01-25T19:45:20.927Z,76.17
2019-01-25T19:47:49.531Z,71.43
2019-01-25T19:50:19.792Z,72.77
2019-01-25T19:52:48.085Z,68.17
2019-01-25T19:55:19.660Z,66.90
2019-01-25T19:57:48.282Z,67.17
2019-01-25T20:00:22.605Z,67.60
2019-01-25T20:02:51.004Z,63.63
2019-01-25T20:05:22.206Z,61.17
2019-01-25T20:07:50.807Z,58.83
2019-01-25T20:10:20.426Z,55.60
2019-01-25T20:12:49.361Z,58.10
2019-01-25T20:15:22.909Z,54.93
2019-01-25T20:17:51.304Z,55.67
2019-01-25T20:20:22.182Z,54.23
2019-01-25T20:22:50.733Z,52.07
2019-01-25T20:25:19.684Z,54.90
2019-01-25T20:27:48.371Z,46.33
2019-01-25T20:30:24.924Z,53.57
2019-01-25T20:32:53.616Z,52.33
2019-01-25T20:35:24.545Z,48.27
2019-01-25T20:37:52.857Z,48.00
2019-01-25T20:40:21.533Z,51.87
2019-01-25T20:42:50.308Z,48.77
2019-01-25T20:45:27.701Z,45.90
2019-01-25T20:47:56.036Z,48.00
2019-01-25T20:50:28.858Z,49.57
2019-01-25T20:52:57.420Z,43.10
2019-01-25T20:55:26.443Z,62.97
2019-01-25T20:57:55.802Z,103.73
2019-01-25T21:00:30.086Z,98.97
2019-01-25T21:02:58.740Z,104.40
2019-01-25T21:05:27.326Z,119.93
2019-01-25T21:07:55.759Z,116.57
2019-01-25T21:10:25.732Z,113.00
2019-01-25T21:12:54.373Z,117.77
2019-01-25T21:15:24.975Z,113.47
2019-01-25T21:17:53.938Z,106.57
2019-01-25T21:20:28.249Z,101.50
2019-01-25T21:22:56.532Z,106.83
2019-01-25T21:25:25.213Z,121.70
2019-01-25T21:27:53.522Z,116.27
2019-01-25T21:30:27.446Z,120.07
2019-01-25T21:32:56.091Z,121.67
2019-01-25T21:35:24.684Z,111.77
2019-01-25T21:37:53.242Z,104.10
2019-01-25T21:40:24.095Z,101.27
2019-01-25T21:42:52.666Z,93.67
2019-01-25T21:45:23.257Z,97.43
2019-01-25T21:47:51.886Z,104.17
2019-01-25T21:50:23.025Z,122.53
2019-01-25T21:52:51.607Z,125.10
2019-01-25T21:55:19.898Z,115.63
2019-01-25T21:57:48.474Z,125.70
2019-01-25T22:00:25.288Z,145.53
2019-01-25T22:02:53.934Z,137.53
2019-01-25T22:05:22.248Z,130.13
2019-01-25T22:07:50.547Z,137.77
2019-01-25T22:10:21.902Z,126.73
2019-01-25T22:12:50.189Z,149.47
2019-01-25T22:15:20.130Z,169.77
2019-01-25T22:17:49.128Z,157.43
2019-01-25T22:20:22.471Z,148.33
2019-01-25T22:22:51.113Z,137.70
2019-01-25T22:25:19.411Z,135.40
2019-01-25T22:27:49.694Z,123.50
2019-01-25T22:30:26.025Z,135.93
2019-01-25T22:32:54.317Z,120.73
2019-01-25T22:35:22.675Z,115.00
2019-01-25T22:37:51.029Z,117.07
2019-01-25T22:40:21.963Z,141.73
2019-01-25T22:42:50.369Z,131.63
2019-01-25T22:45:21.766Z,140.37
2019-01-25T22:47:50.359Z,125.50
2019-01-25T22:50:24.139Z,120.20
2019-01-25T22:52:52.446Z,125.37
2019-01-25T22:55:21.761Z,110.87
2019-01-25T22:57:50.630Z,105.90
2019-01-25T23:00:26.546Z,99.97
2019-01-25T23:02:55.170Z,89.47
2019-01-25T23:05:44.374Z,86.03
2019-01-25T23:08:13.017Z,87.00
2019-01-25T23:10:41.303Z,80.37
2019-01-25T23:13:09.612Z,74.50
2019-01-25T23:15:37.987Z,74.70
2019-01-25T23:18:06.753Z,76.13
2019-01-25T23:20:35.022Z,74.37
2019-01-25T23:23:03.611Z,68.73
2019-01-25T23:25:31.910Z,75.77
2019-01-25T23:28:00.189Z,84.60
2019-01-25T23:30:28.499Z,90.80
2019-01-25T23:32:56.782Z,98.27
2019-01-25T23:35:25.395Z,95.77
2019-01-25T23:37:53.975Z,98.40
2019-01-25T23:40:22.561Z,100.80
2019-01-25T23:42:50.835Z,89.20
2019-01-25T23:45:19.139Z,95.67
2019-01-25T23:47:47.438Z,86.60
2019-01-25T23:50:16.072Z,89.07
2019-01-25T23:52:44.425Z,84.10
2019-01-25T23:55:13.048Z,80.17
2019-01-25T23:57:41.722Z,82.67
